createdAt,value
2018-06-28T00:00:31.629Z,16.5
2018-06-28T00:01:31.066Z,16.5
2018-06-28T00:02:30.505Z,16.6
2018-06-28T00:03:29.439Z,16.6
2018-06-28T00:04:28.775Z,16.6
2018-06-28T00:05:28.100Z,16.6
2018-06-28T00:06:27.321Z,16.7
2018-06-28T00:07:26.763Z,16.7
2018-06-28T00:08:25.988Z,16.6
2018-06-28T00:09:25.254Z,16.6
2018-06-28T00:10:24.589Z,16.6
2018-06-28T00:11:24.033Z,16.6
2018-06-28T00:12:23.273Z,16.6
2018-06-28T00:13:22.414Z,16.6
2018-06-28T00:14:21.426Z,16.5
2018-06-28T00:15:21.268Z,16.5
2018-06-28T00:16:20.612Z,16.5
2018-06-28T00:17:20.059Z,16.4
2018-06-28T00:18:18.882Z,16.4
2018-06-28T00:19:18.108Z,16.4
2018-06-28T00:20:17.828Z,16.3
2018-06-28T00:21:17.050Z,16.3
2018-06-28T00:22:16.491Z,16.3
2018-06-28T00:23:15.116Z,16.3
2018-06-28T00:24:14.951Z,16.4
2018-06-28T00:25:14.276Z,16.4
2018-06-28T00:26:13.496Z,16.4
2018-06-28T00:27:12.828Z,16.4
2018-06-28T00:28:12.167Z,16.4
2018-06-28T00:29:11.399Z,16.4
2018-06-28T00:30:10.834Z,16.4
2018-06-28T00:31:09.665Z,16.4
2018-06-28T00:31:40.415Z,16.4
2018-06-28T00:32:11.064Z,16.4
2018-06-28T00:33:08.165Z,16.4
2018-06-28T00:34:07.779Z,16.4
2018-06-28T00:35:07.108Z,16.4
2018-06-28T00:36:06.229Z,16.3
2018-06-28T00:37:05.615Z,16.3
2018-06-28T00:38:04.944Z,16.3
2018-06-28T00:39:04.058Z,16.3
2018-06-28T00:40:03.293Z,16.3
2018-06-28T00:41:03.027Z,16.2
2018-06-28T00:42:02.155Z,16.2
2018-06-28T00:43:01.383Z,16.2
2018-06-28T00:44:00.606Z,16.2
2018-06-28T00:44:59.833Z,16.1
2018-06-28T00:46:58.443Z,16.1
2018-06-28T00:47:58.266Z,16.1
2018-06-28T00:48:57.194Z,16.1
2018-06-28T00:49:56.415Z,16.1
2018-06-28T00:51:55.128Z,16.1
2018-06-28T00:52:54.352Z,16
2018-06-28T00:53:53.795Z,16
2018-06-28T00:54:53.124Z,16
2018-06-28T00:55:52.341Z,16
2018-06-28T00:56:51.674Z,16
2018-06-28T00:57:51.009Z,15.9
2018-06-28T00:58:50.354Z,15.9
2018-06-28T00:59:49.688Z,15.9
2018-06-28T01:00:49.129Z,15.9
2018-06-28T01:01:48.060Z,15.9
2018-06-28T01:02:47.282Z,15.9
2018-06-28T01:03:46.513Z,15.8
2018-06-28T01:04:45.952Z,15.8
2018-06-28T01:05:45.290Z,15.8
2018-06-28T01:06:44.622Z,15.8
2018-06-28T01:07:43.947Z,15.8
2018-06-28T01:08:43.286Z,15.8
2018-06-28T01:09:42.409Z,15.8
2018-06-28T01:10:41.627Z,15.8
2018-06-28T01:11:40.857Z,15.7
2018-06-28T01:12:11.495Z,15.7
2018-06-28T01:12:42.035Z,15.7
2018-06-28T01:13:12.678Z,15.7
2018-06-28T01:13:43.227Z,15.7
2018-06-28T01:14:39.043Z,15.7
2018-06-28T01:15:09.686Z,15.7
2018-06-28T01:15:40.323Z,15.7
2018-06-28T01:16:37.531Z,15.7
2018-06-28T01:17:36.753Z,15.7
2018-06-28T01:18:36.384Z,15.7
2018-06-28T01:19:35.216Z,15.7
2018-06-28T01:20:35.056Z,15.6
2018-06-28T01:21:33.878Z,15.6
2018-06-28T01:22:33.208Z,15.6
2018-06-28T01:23:32.434Z,15.6
2018-06-28T01:24:31.651Z,15.6
2018-06-28T01:25:01.993Z,15.6
2018-06-28T01:26:30.404Z,15.6
2018-06-28T01:27:29.736Z,15.6
2018-06-28T01:28:28.860Z,15.6
2018-06-28T01:29:28.189Z,15.6
2018-06-28T01:30:27.626Z,15.6
2018-06-28T01:31:26.741Z,15.6
2018-06-28T01:31:57.294Z,15.6
2018-06-28T01:32:27.835Z,15.6
2018-06-28T01:33:25.664Z,15.6
2018-06-28T01:34:24.888Z,15.6
2018-06-28T01:36:23.199Z,15.6
2018-06-28T01:37:22.418Z,15.6
2018-06-28T01:38:21.760Z,15.5
2018-06-28T01:39:21.099Z,15.5
2018-06-28T01:40:20.539Z,15.5
2018-06-28T01:41:19.864Z,15.5
2018-06-28T01:42:19.194Z,15.5
2018-06-28T01:43:18.581Z,15.5
2018-06-28T01:44:17.906Z,15.5
2018-06-28T01:45:16.738Z,15.5
2018-06-28T01:46:16.471Z,15.5
2018-06-28T01:47:15.297Z,15.5
2018-06-28T01:48:14.749Z,15.5
2018-06-28T01:49:13.971Z,15.5
2018-06-28T01:50:13.335Z,15.5
2018-06-28T01:51:12.678Z,15.4
2018-06-28T01:52:12.115Z,15.4
2018-06-28T01:53:11.336Z,15.4
2018-06-28T01:54:10.565Z,15.4
2018-06-28T01:55:10.006Z,15.3
2018-06-28T01:57:08.265Z,15.3
2018-06-28T01:58:07.609Z,15.3
2018-06-28T01:59:06.837Z,15.3
2018-06-28T02:00:06.178Z,15.3
2018-06-28T02:01:05.622Z,15.3
2018-06-28T02:02:05.075Z,15.3
2018-06-28T02:03:04.191Z,15.3
2018-06-28T02:04:03.416Z,15.2
2018-06-28T02:05:02.536Z,15.2
2018-06-28T02:06:01.980Z,15.2
2018-06-28T02:06:32.626Z,15.2
2018-06-28T02:07:02.773Z,15.2
2018-06-28T02:08:00.488Z,15.2
2018-06-28T02:09:59.208Z,15.1
2018-06-28T02:10:58.540Z,15.2
2018-06-28T02:11:57.873Z,15.1
2018-06-28T02:12:56.997Z,15.1
2018-06-28T02:13:56.441Z,15.1
2018-06-28T02:14:55.276Z,15.1
2018-06-28T02:15:54.719Z,15.1
2018-06-28T02:16:54.152Z,15.1
2018-06-28T02:17:53.478Z,15.1
2018-06-28T02:18:52.600Z,15.1
2018-06-28T02:20:51.214Z,15
2018-06-28T02:21:50.431Z,15
2018-06-28T02:22:49.765Z,15
2018-06-28T02:23:49.092Z,15
2018-06-28T02:24:48.317Z,15
2018-06-28T02:25:47.764Z,15
2018-06-28T02:26:46.997Z,15
2018-06-28T02:27:46.134Z,15
2018-06-28T02:28:45.565Z,14.9
2018-06-28T02:29:44.905Z,14.9
2018-06-28T02:31:43.256Z,14.9
2018-06-28T02:32:42.695Z,14.9
2018-06-28T02:33:42.036Z,14.9
2018-06-28T02:34:41.150Z,14.9
2018-06-28T02:35:40.627Z,14.9
2018-06-28T02:36:39.586Z,14.9
2018-06-28T02:37:38.703Z,14.9
2018-06-28T02:38:38.327Z,14.9
2018-06-28T02:39:37.848Z,14.9
2018-06-28T02:40:36.572Z,14.9
2018-06-28T02:42:34.969Z,14.9
2018-06-28T02:43:34.816Z,14.9
2018-06-28T02:44:34.255Z,14.9
2018-06-28T02:45:42.517Z,14.9
2018-06-28T02:46:32.770Z,15
2018-06-28T02:47:31.705Z,14.9
2018-06-28T02:48:31.133Z,15
2018-06-28T02:49:30.234Z,15
2018-06-28T02:50:29.564Z,15
2018-06-28T02:51:28.888Z,15
2018-06-28T02:51:59.415Z,15
2018-06-28T02:53:27.534Z,15
2018-06-28T02:54:26.848Z,15
2018-06-28T02:55:26.288Z,15
2018-06-28T02:56:25.101Z,15
2018-06-28T02:57:24.330Z,15
2018-06-28T02:58:23.543Z,15
2018-06-28T02:59:22.869Z,15
2018-06-28T03:00:22.195Z,15
2018-06-28T03:01:21.582Z,15
2018-06-28T03:01:52.225Z,15
2018-06-28T03:02:22.861Z,15
2018-06-28T03:02:53.624Z,15
2018-06-28T03:04:19.521Z,15
2018-06-28T03:05:18.952Z,15
2018-06-28T03:06:17.893Z,15
2018-06-28T03:07:17.117Z,15
2018-06-28T03:08:16.494Z,15
2018-06-28T03:09:15.925Z,15
2018-06-28T03:10:15.279Z,14.9
2018-06-28T03:11:14.502Z,15
2018-06-28T03:12:13.831Z,15
2018-06-28T03:15:11.559Z,15
2018-06-28T03:16:10.887Z,15.1
2018-06-28T03:17:10.219Z,15.1
2018-06-28T03:18:09.538Z,15.2
2018-06-28T03:19:08.351Z,15.2
2018-06-28T03:20:07.674Z,15.2
2018-06-28T03:21:07.001Z,15.2
2018-06-28T03:22:06.264Z,15.2
2018-06-28T03:23:05.261Z,15.2
2018-06-28T03:24:04.867Z,15.2
2018-06-28T03:26:03.470Z,15.2
2018-06-28T03:27:02.916Z,15.2
2018-06-28T03:28:02.047Z,15.2
2018-06-28T03:29:01.373Z,15.2
2018-06-28T03:30:00.830Z,15.2
2018-06-28T03:30:59.820Z,15.2
2018-06-28T03:31:59.279Z,15.3
2018-06-28T03:32:58.714Z,15.3
2018-06-28T03:33:57.420Z,15.3
2018-06-28T03:34:57.140Z,15.3
2018-06-28T03:36:55.463Z,15.3
2018-06-28T03:37:55.179Z,15.3
2018-06-28T03:38:53.877Z,15.3
2018-06-28T03:39:53.090Z,15.4
2018-06-28T03:41:51.906Z,15.4
2018-06-28T03:42:51.329Z,15.4
2018-06-28T03:43:21.755Z,15.4
2018-06-28T03:43:52.287Z,15.4
2018-06-28T03:44:22.925Z,15.4
2018-06-28T03:44:53.447Z,15.4
2018-06-28T03:45:24.189Z,15.4
2018-06-28T03:47:47.668Z,15.4
2018-06-28T03:48:46.887Z,15.4
2018-06-28T03:49:46.319Z,15.4
2018-06-28T03:50:45.537Z,15.3
2018-06-28T03:51:44.864Z,15.3
2018-06-28T03:52:44.296Z,15.3
2018-06-28T03:53:42.907Z,15.3
2018-06-28T03:54:42.618Z,15.3
2018-06-28T03:55:41.726Z,15.4
2018-06-28T03:56:41.159Z,15.4
2018-06-28T03:58:39.972Z,15.4
2018-06-28T03:59:38.785Z,15.4
2018-06-28T04:00:37.998Z,15.4
2018-06-28T04:01:37.423Z,15.4
2018-06-28T04:02:36.854Z,15.4
2018-06-28T04:03:36.057Z,15.4
2018-06-28T04:04:35.380Z,15.4
2018-06-28T04:05:34.585Z,15.4
2018-06-28T04:06:34.167Z,15.4
2018-06-28T04:07:33.173Z,15.4
2018-06-28T04:09:31.989Z,15.5
2018-06-28T04:10:30.917Z,15.5
2018-06-28T04:11:30.233Z,15.5
2018-06-28T04:12:29.554Z,15.5
2018-06-28T04:13:28.872Z,15.5
2018-06-28T04:14:28.083Z,15.5
2018-06-28T04:15:27.312Z,15.5
2018-06-28T04:16:26.746Z,15.6
2018-06-28T04:17:25.975Z,15.6
2018-06-28T04:18:25.291Z,15.6
2018-06-28T04:19:24.613Z,15.6
2018-06-28T04:20:23.828Z,15.6
2018-06-28T04:21:23.042Z,15.6
2018-06-28T04:22:22.371Z,15.7
2018-06-28T04:23:21.487Z,15.7
2018-06-28T04:24:20.812Z,15.7
2018-06-28T04:25:20.146Z,15.7
2018-06-28T04:26:19.468Z,15.7
2018-06-28T04:27:18.633Z,15.7
2018-06-28T04:28:17.956Z,15.7
2018-06-28T04:29:17.279Z,15.8
2018-06-28T04:30:16.491Z,15.8
2018-06-28T04:31:15.706Z,15.8
2018-06-28T04:32:15.027Z,15.8
2018-06-28T04:33:14.461Z,15.9
2018-06-28T04:34:13.920Z,15.9
2018-06-28T04:35:13.348Z,15.9
2018-06-28T04:36:12.566Z,15.9
2018-06-28T04:37:11.783Z,16
2018-06-28T04:38:10.997Z,16
2018-06-28T04:39:10.327Z,16
2018-06-28T04:40:09.580Z,16.1
2018-06-28T04:41:08.799Z,16.1
2018-06-28T04:41:39.424Z,16.1
2018-06-28T04:42:09.951Z,16.1
2018-06-28T04:43:07.156Z,16.1
2018-06-28T04:44:06.471Z,16.2
2018-06-28T04:45:05.681Z,16.2
2018-06-28T04:46:05.003Z,16.2
2018-06-28T04:47:04.233Z,16.2
2018-06-28T04:48:04.055Z,16.3
2018-06-28T04:49:02.771Z,16.3
2018-06-28T04:50:02.395Z,16.3
2018-06-28T04:51:01.602Z,16.4
2018-06-28T04:52:00.932Z,16.4
2018-06-28T04:53:00.364Z,16.5
2018-06-28T04:53:59.684Z,16.5
2018-06-28T04:54:59.005Z,16.5
2018-06-28T04:55:58.227Z,16.6
2018-06-28T04:56:57.549Z,16.6
2018-06-28T04:57:56.881Z,16.6
2018-06-28T04:58:56.495Z,16.7
2018-06-28T04:59:55.199Z,16.7
2018-06-28T05:00:54.408Z,16.7
2018-06-28T05:01:53.730Z,16.7
2018-06-28T05:02:53.197Z,16.7
2018-06-28T05:03:52.520Z,16.7
2018-06-28T05:04:51.630Z,16.8
2018-06-28T05:05:50.956Z,16.8
2018-06-28T05:06:50.279Z,16.8
2018-06-28T05:07:49.278Z,16.8
2018-06-28T05:08:49.104Z,16.8
2018-06-28T05:09:48.317Z,16.8
2018-06-28T05:10:47.755Z,16.9
2018-06-28T05:11:46.873Z,16.9
2018-06-28T05:13:45.577Z,16.9
2018-06-28T05:14:45.095Z,16.9
2018-06-28T05:15:44.016Z,16.9
2018-06-28T05:16:43.337Z,17
2018-06-28T05:17:42.662Z,17
2018-06-28T05:18:41.994Z,17
2018-06-28T05:19:41.324Z,17
2018-06-28T05:20:40.436Z,17
2018-06-28T05:21:11.071Z,17
2018-06-28T05:21:41.691Z,17
2018-06-28T05:22:11.711Z,17
2018-06-28T05:22:42.348Z,17
2018-06-28T05:23:12.778Z,17
2018-06-28T05:23:43.533Z,17
2018-06-28T05:24:13.767Z,17
2018-06-28T05:24:43.897Z,17
2018-06-28T05:25:14.537Z,17
2018-06-28T05:26:36.297Z,17.1
2018-06-28T05:27:35.884Z,17.1
2018-06-28T05:28:35.476Z,17.1
2018-06-28T05:29:34.083Z,17.2
2018-06-28T05:30:33.850Z,17.2
2018-06-28T05:31:33.277Z,17.2
2018-06-28T05:32:31.985Z,17.2
2018-06-28T05:33:31.811Z,17.2
2018-06-28T05:34:02.040Z,17.2
2018-06-28T05:34:32.654Z,17.2
2018-06-28T05:35:03.189Z,17.2
2018-06-28T05:35:33.836Z,17.2
2018-06-28T05:36:04.475Z,17.2
2018-06-28T05:37:28.858Z,17.2
2018-06-28T05:38:28.186Z,17.2
2018-06-28T05:39:27.408Z,17.3
2018-06-28T05:40:26.722Z,17.3
2018-06-28T05:41:26.053Z,17.4
2018-06-28T05:42:25.263Z,17.4
2018-06-28T05:43:24.773Z,17.4
2018-06-28T05:44:24.091Z,17.5
2018-06-28T05:45:23.317Z,17.5
2018-06-28T05:46:22.419Z,17.5
2018-06-28T05:47:22.153Z,17.5
2018-06-28T05:48:21.371Z,17.5
2018-06-28T05:49:20.487Z,17.6
2018-06-28T05:50:19.812Z,17.6
2018-06-28T05:51:19.137Z,17.6
2018-06-28T05:52:18.351Z,17.6
2018-06-28T05:53:17.847Z,17.7
2018-06-28T05:54:17.065Z,17.7
2018-06-28T05:55:16.288Z,17.7
2018-06-28T05:56:15.713Z,17.8
2018-06-28T05:57:15.028Z,17.8
2018-06-28T05:58:14.351Z,17.8
2018-06-28T05:59:13.458Z,17.9
2018-06-28T06:00:13.401Z,17.9
2018-06-28T06:01:12.231Z,17.9
2018-06-28T06:02:11.635Z,18
2018-06-28T06:03:10.951Z,18
2018-06-28T06:04:10.275Z,18.1
2018-06-28T06:05:09.593Z,18.1
2018-06-28T06:05:39.837Z,18.1
2018-06-28T06:06:10.466Z,18.1
2018-06-28T06:07:08.280Z,18.1
2018-06-28T06:08:07.597Z,18.1
2018-06-28T06:09:06.604Z,18.2
2018-06-28T06:10:06.327Z,18.2
2018-06-28T06:11:05.546Z,18.2
2018-06-28T06:12:05.187Z,18.2
2018-06-28T06:13:04.162Z,18.3
2018-06-28T06:14:03.265Z,18.3
2018-06-28T06:15:02.876Z,18.4
2018-06-28T06:16:02.207Z,18.4
2018-06-28T06:17:01.542Z,18.4
2018-06-28T06:18:00.973Z,18.4
2018-06-28T06:19:00.416Z,18.4
2018-06-28T06:19:59.634Z,18.5
2018-06-28T06:20:58.743Z,18.5
2018-06-28T06:21:58.362Z,18.5
2018-06-28T06:22:57.477Z,18.5
2018-06-28T06:23:56.798Z,18.5
2018-06-28T06:24:56.120Z,18.5
2018-06-28T06:25:55.583Z,18.6
2018-06-28T06:26:54.789Z,18.6
2018-06-28T06:27:54.515Z,18.6
2018-06-28T06:28:53.729Z,18.6
2018-06-28T06:29:53.076Z,18.7
2018-06-28T06:30:52.170Z,18.7
2018-06-28T06:31:51.492Z,18.8
2018-06-28T06:32:51.111Z,18.8
2018-06-28T06:33:50.533Z,18.9
2018-06-28T06:34:49.903Z,19
2018-06-28T06:37:48.058Z,19.1
2018-06-28T06:38:46.868Z,19.2
2018-06-28T06:39:46.292Z,19.2
2018-06-28T06:40:45.503Z,19.2
2018-06-28T06:41:45.324Z,19.2
2018-06-28T06:42:44.641Z,19.3
2018-06-28T06:43:43.963Z,19.3
2018-06-28T06:44:43.284Z,19.4
2018-06-28T06:45:42.283Z,19.5
2018-06-28T06:46:41.704Z,19.5
2018-06-28T06:47:41.043Z,19.5
2018-06-28T06:48:40.375Z,19.6
2018-06-28T06:49:40.159Z,19.6
2018-06-28T06:50:39.379Z,19.6
2018-06-28T06:51:38.925Z,19.7
2018-06-28T06:52:37.852Z,19.7
2018-06-28T06:53:37.274Z,19.8
2018-06-28T06:54:36.591Z,19.8
2018-06-28T06:55:35.706Z,19.8
2018-06-28T06:56:35.538Z,19.8
2018-06-28T06:57:35.152Z,19.9
2018-06-28T06:58:34.247Z,20
2018-06-28T06:59:33.464Z,20
2018-06-28T07:00:32.893Z,20.1
2018-06-28T07:01:32.214Z,20.1
2018-06-28T07:02:02.639Z,20.1
2018-06-28T07:02:33.275Z,20.2
2018-06-28T07:03:03.296Z,20.2
2018-06-28T07:03:34.176Z,20.2
2018-06-28T07:04:04.148Z,20.2
2018-06-28T07:04:34.794Z,20.3
2018-06-28T07:05:05.037Z,20.3
2018-06-28T07:06:28.827Z,20.3
2018-06-28T07:07:28.143Z,20.4
2018-06-28T07:08:28.073Z,20.4
2018-06-28T07:09:26.572Z,20.5
2018-06-28T07:10:27.572Z,20.5
2018-06-28T07:11:25.964Z,20.6
2018-06-28T07:12:25.304Z,20.6
2018-06-28T07:12:55.943Z,20.6
2018-06-28T07:13:26.463Z,20.6
2018-06-28T07:13:57.099Z,20.6
2018-06-28T07:14:27.630Z,20.7
2018-06-28T07:14:58.272Z,20.7
2018-06-28T07:16:22.752Z,20.7
2018-06-28T07:17:21.960Z,20.8
2018-06-28T07:18:21.419Z,20.9
2018-06-28T07:19:20.649Z,21
2018-06-28T07:20:20.369Z,21.1
2018-06-28T07:21:19.687Z,21.1
2018-06-28T07:22:18.912Z,21.2
2018-06-28T07:23:18.025Z,21.2
2018-06-28T07:24:17.958Z,21.3
2018-06-28T07:25:17.388Z,21.3
2018-06-28T07:27:16.110Z,21.4
2018-06-28T07:28:15.580Z,21.5
2018-06-28T07:29:14.803Z,21.5
2018-06-28T07:30:14.123Z,21.6
2018-06-28T07:31:13.618Z,21.7
2018-06-28T07:32:12.718Z,21.8
2018-06-28T07:33:12.763Z,21.8
2018-06-28T07:34:12.202Z,21.8
2018-06-28T07:35:10.950Z,21.8
2018-06-28T07:36:10.377Z,21.8
2018-06-28T07:37:09.695Z,21.9
2018-06-28T07:38:09.130Z,22
2018-06-28T07:39:08.457Z,22
2018-06-28T07:40:08.282Z,22.1
2018-06-28T07:41:07.512Z,22.2
2018-06-28T07:42:06.732Z,22.2
2018-06-28T07:43:06.157Z,22.2
2018-06-28T07:45:05.265Z,22.2
2018-06-28T07:46:04.374Z,22.1
2018-06-28T07:48:03.088Z,22.2
2018-06-28T07:49:02.633Z,22.1
2018-06-28T07:50:01.869Z,22.2
2018-06-28T07:51:01.489Z,22.2
2018-06-28T07:52:00.712Z,22.3
2018-06-28T07:53:00.638Z,22.3
2018-06-28T07:53:59.976Z,22.4
2018-06-28T07:54:59.470Z,22.5
2018-06-28T07:55:30.105Z,22.5
2018-06-28T07:56:00.028Z,22.5
2018-06-28T07:56:30.577Z,22.5
2018-06-28T07:57:57.690Z,22.5
2018-06-28T07:59:56.539Z,22.6
2018-06-28T08:00:55.742Z,22.6
2018-06-28T08:01:55.152Z,22.6
2018-06-28T08:02:54.575Z,22.6
2018-06-28T08:03:53.790Z,22.6
2018-06-28T08:04:53.111Z,22.7
2018-06-28T08:05:53.040Z,22.7
2018-06-28T08:06:52.146Z,22.7
2018-06-28T08:07:51.582Z,22.8
2018-06-28T08:08:50.710Z,22.8
2018-06-28T08:09:51.014Z,22.7
2018-06-28T08:10:49.776Z,22.7
2018-06-28T08:11:49.000Z,22.7
2018-06-28T08:12:48.614Z,22.7
2018-06-28T08:13:47.825Z,22.8
2018-06-28T08:14:47.427Z,22.9
2018-06-28T08:16:46.539Z,23.1
2018-06-28T08:17:45.872Z,23.1
2018-06-28T08:18:45.297Z,23
2018-06-28T08:19:44.728Z,23.1
2018-06-28T08:20:44.054Z,23.1
2018-06-28T08:21:43.665Z,23.2
2018-06-28T08:22:42.773Z,23.2
2018-06-28T08:23:42.593Z,23.2
2018-06-28T08:24:41.813Z,23.1
2018-06-28T08:25:41.127Z,23.2
2018-06-28T08:26:41.063Z,23.3
2018-06-28T08:27:40.384Z,23.2
2018-06-28T08:28:39.833Z,23.3
2018-06-28T08:29:39.264Z,23.3
2018-06-28T08:30:38.486Z,23.4
2018-06-28T08:31:37.916Z,23.4
2018-06-28T08:32:37.347Z,23.3
2018-06-28T08:33:36.562Z,23.3
2018-06-28T08:34:36.503Z,23.4
2018-06-28T08:35:35.722Z,23.4
2018-06-28T08:36:35.439Z,23.3
2018-06-28T08:38:34.148Z,23.6
2018-06-28T08:39:33.477Z,23.6
2018-06-28T08:40:32.596Z,23.7
2018-06-28T08:41:32.413Z,23.7
2018-06-28T08:42:32.022Z,23.7
2018-06-28T08:43:31.235Z,23.7
2018-06-28T08:44:30.958Z,23.7
2018-06-28T08:45:30.279Z,23.7
2018-06-28T08:46:29.699Z,23.8
2018-06-28T08:47:28.806Z,23.8
2018-06-28T08:48:28.626Z,23.8
2018-06-28T08:49:28.064Z,23.8
2018-06-28T08:50:27.278Z,23.8
2018-06-28T08:51:27.103Z,23.8
2018-06-28T08:52:26.326Z,23.9
2018-06-28T08:53:26.156Z,24
2018-06-28T08:53:56.797Z,24
2018-06-28T08:54:27.332Z,24
2018-06-28T08:54:57.653Z,24
2018-06-28T08:56:24.286Z,24.1
2018-06-28T08:57:23.722Z,24.1
2018-06-28T08:58:23.609Z,24.1
2018-06-28T08:59:22.712Z,24
2018-06-28T09:00:22.452Z,24
2018-06-28T09:01:21.883Z,24.1
2018-06-28T09:02:21.093Z,24.1
2018-06-28T09:03:20.444Z,24.1
2018-06-28T09:04:20.266Z,24.2
2018-06-28T09:05:19.270Z,24.3
2018-06-28T09:06:19.097Z,24.3
2018-06-28T09:07:18.537Z,24.3
2018-06-28T09:08:17.754Z,24.2
2018-06-28T09:09:17.478Z,24.3
2018-06-28T09:10:16.913Z,24.4
2018-06-28T09:11:16.339Z,24.4
2018-06-28T09:12:15.652Z,24.4
2018-06-28T09:13:15.583Z,24.4
2018-06-28T09:13:45.828Z,24.4
2018-06-28T09:15:14.768Z,24.3
2018-06-28T09:16:13.552Z,24.4
2018-06-28T09:17:13.378Z,24.5
2018-06-28T09:18:12.490Z,24.5
2018-06-28T09:19:12.317Z,24.5
2018-06-28T09:20:11.537Z,24.7
2018-06-28T09:21:10.977Z,24.6
2018-06-28T09:22:10.901Z,24.6
2018-06-28T09:23:11.259Z,24.6
2018-06-28T09:24:09.583Z,24.6
2018-06-28T09:25:08.691Z,24.5
2018-06-28T09:26:08.407Z,24.6
2018-06-28T09:27:08.017Z,24.5
2018-06-28T09:28:07.472Z,24.5
2018-06-28T09:29:06.678Z,24.5
2018-06-28T09:30:06.184Z,24.5
2018-06-28T09:31:05.910Z,24.5
2018-06-28T09:32:05.339Z,24.5
2018-06-28T09:33:04.799Z,24.6
2018-06-28T09:34:04.120Z,24.7
2018-06-28T09:35:03.733Z,24.7
2018-06-28T09:36:03.338Z,24.6
2018-06-28T09:37:02.229Z,24.6
2018-06-28T09:38:01.838Z,24.6
2018-06-28T09:39:01.454Z,24.6
2018-06-28T09:40:01.073Z,24.7
2018-06-28T09:41:00.912Z,24.7
2018-06-28T09:42:00.238Z,24.7
2018-06-28T09:42:59.661Z,24.8
2018-06-28T09:43:59.006Z,24.7
2018-06-28T09:44:58.825Z,24.8
2018-06-28T09:45:57.929Z,24.8
2018-06-28T09:46:57.861Z,24.9
2018-06-28T09:47:56.959Z,25
2018-06-28T09:48:56.797Z,24.9
2018-06-28T09:49:56.116Z,24.9
2018-06-28T09:50:55.725Z,25
2018-06-28T09:51:54.932Z,25.1
2018-06-28T09:52:54.865Z,25.1
2018-06-28T09:53:53.885Z,25.1
2018-06-28T09:54:54.353Z,25.3
2018-06-28T09:55:53.216Z,25.3
2018-06-28T09:56:52.530Z,25.3
2018-06-28T09:57:23.046Z,25.3
2018-06-28T09:57:53.792Z,25.4
2018-06-28T09:58:24.202Z,25.4
2018-06-28T09:58:54.734Z,25.4
2018-06-28T09:59:25.154Z,25.4
2018-06-28T10:00:50.433Z,25.5
2018-06-28T10:01:50.203Z,25.4
2018-06-28T10:02:49.515Z,25.5
2018-06-28T10:03:49.330Z,25.4
2018-06-28T10:04:48.543Z,25.3
2018-06-28T10:05:48.255Z,25.3
2018-06-28T10:06:47.974Z,25.2
2018-06-28T10:07:47.192Z,25.2
2018-06-28T10:08:17.716Z,25.2
2018-06-28T10:10:45.620Z,25.4
2018-06-28T10:11:45.344Z,25.4
2018-06-28T10:12:44.558Z,25.4
2018-06-28T10:14:44.113Z,25.5
2018-06-28T10:15:43.496Z,25.5
2018-06-28T10:16:42.819Z,25.5
2018-06-28T10:17:41.923Z,25.5
2018-06-28T10:18:41.361Z,25.7
2018-06-28T10:19:41.189Z,25.7
2018-06-28T10:20:40.911Z,25.7
2018-06-28T10:21:40.234Z,25.7
2018-06-28T10:22:39.949Z,25.6
2018-06-28T10:23:39.273Z,25.6
2018-06-28T10:24:39.066Z,25.6
2018-06-28T10:25:38.446Z,25.7
2018-06-28T10:26:37.766Z,25.7
2018-06-28T10:27:37.695Z,25.7
2018-06-28T10:28:36.816Z,25.7
2018-06-28T10:29:36.426Z,25.8
2018-06-28T10:30:35.755Z,25.8
2018-06-28T10:32:34.874Z,25.9
2018-06-28T10:33:34.483Z,26
2018-06-28T10:34:34.310Z,26.1
2018-06-28T10:35:33.422Z,26.1
2018-06-28T10:36:33.348Z,26.1
2018-06-28T10:37:32.563Z,26.1
2018-06-28T10:38:32.389Z,26.2
2018-06-28T10:39:31.488Z,26.1
2018-06-28T10:40:31.094Z,26.2
2018-06-28T10:41:31.032Z,26.2
2018-06-28T10:42:30.143Z,26.1
2018-06-28T10:43:29.969Z,26.1
2018-06-28T10:44:29.081Z,26.2
2018-06-28T10:45:29.098Z,26.1
2018-06-28T10:46:28.425Z,26.1
2018-06-28T10:47:28.129Z,26
2018-06-28T10:48:27.221Z,26
2018-06-28T10:49:26.743Z,26
2018-06-28T10:50:26.951Z,26
2018-06-28T10:51:26.161Z,26.1
2018-06-28T10:52:25.384Z,26.1
2018-06-28T10:53:24.987Z,26.1
2018-06-28T10:54:24.602Z,26.2
2018-06-28T10:55:24.417Z,26.3
2018-06-28T10:56:24.029Z,26.3
2018-06-28T10:56:53.947Z,26.3
2018-06-28T10:58:23.072Z,26.2
2018-06-28T10:59:22.196Z,26.1
2018-06-28T11:00:21.916Z,25.9
2018-06-28T11:01:21.237Z,26
2018-06-28T11:02:21.176Z,26
2018-06-28T11:03:20.287Z,26
2018-06-28T11:04:20.113Z,25.9
2018-06-28T11:05:19.237Z,25.8
2018-06-28T11:06:19.162Z,25.8
2018-06-28T11:07:19.118Z,25.8
2018-06-28T11:07:49.252Z,25.8
2018-06-28T11:08:20.110Z,25.9
2018-06-28T11:08:50.137Z,25.9
2018-06-28T11:09:20.878Z,25.9
2018-06-28T11:09:50.911Z,25.9
2018-06-28T11:11:16.814Z,26.1
2018-06-28T11:13:16.031Z,26.2
2018-06-28T11:14:15.251Z,26.3
2018-06-28T11:15:14.961Z,26.4
2018-06-28T11:16:14.783Z,26.5
2018-06-28T11:17:14.007Z,26.6
2018-06-28T11:18:13.615Z,26.5
2018-06-28T11:19:13.433Z,26.4
2018-06-28T11:20:12.649Z,26.3
2018-06-28T11:21:12.255Z,26.2
2018-06-28T11:22:11.966Z,26.1
2018-06-28T11:23:11.186Z,26.1
2018-06-28T11:24:11.005Z,26.1
2018-06-28T11:25:10.570Z,26.2
2018-06-28T11:26:10.181Z,26.2
2018-06-28T11:27:09.622Z,26.3
2018-06-28T11:28:08.836Z,26.4
2018-06-28T11:29:08.648Z,26.5
2018-06-28T11:30:08.362Z,26.6
2018-06-28T11:31:07.794Z,26.7
2018-06-28T11:32:07.403Z,26.8
2018-06-28T11:34:06.776Z,27.1
2018-06-28T11:35:06.161Z,27.1
2018-06-28T11:36:05.423Z,27.1
2018-06-28T11:37:05.038Z,27.2
2018-06-28T11:38:04.966Z,27.2
2018-06-28T11:39:04.298Z,27.3
2018-06-28T11:40:04.016Z,27.3
2018-06-28T11:41:03.231Z,27.3
2018-06-28T11:41:33.963Z,27.3
2018-06-28T11:42:04.227Z,27.1
2018-06-28T11:43:02.439Z,27
2018-06-28T11:44:02.194Z,26.9
2018-06-28T11:45:01.408Z,26.8
2018-06-28T11:46:01.125Z,26.8
2018-06-28T11:47:00.953Z,27
2018-06-28T11:48:00.172Z,27.2
2018-06-28T11:48:59.999Z,27.3
2018-06-28T11:49:59.828Z,27.1
2018-06-28T11:50:59.145Z,27
2018-06-28T11:51:29.565Z,27
2018-06-28T11:52:00.197Z,26.9
2018-06-28T11:52:30.422Z,26.9
2018-06-28T11:53:01.052Z,26.9
2018-06-28T11:53:31.294Z,26.9
2018-06-28T11:54:01.430Z,26.8
2018-06-28T11:54:32.067Z,26.8
2018-06-28T11:55:02.103Z,26.8
2018-06-28T11:55:32.733Z,26.8
2018-06-28T11:56:56.828Z,26.7
2018-06-28T11:57:56.265Z,26.6
2018-06-28T11:58:55.684Z,26.5
2018-06-28T11:59:55.392Z,26.5
2018-06-28T12:00:54.720Z,26.5
2018-06-28T12:01:54.541Z,26.7
2018-06-28T12:02:54.264Z,26.8
2018-06-28T12:03:53.587Z,27
2018-06-28T12:04:24.119Z,27
2018-06-28T12:04:54.651Z,27.1
2018-06-28T12:05:25.727Z,27.1
2018-06-28T12:05:55.828Z,27.3
2018-06-28T12:06:52.419Z,27.4
2018-06-28T12:07:51.856Z,27.4
2018-06-28T12:08:51.470Z,27.3
2018-06-28T12:09:51.399Z,27.1
2018-06-28T12:11:50.107Z,26.7
2018-06-28T12:12:49.925Z,26.7
2018-06-28T12:13:49.149Z,26.6
2018-06-28T12:14:48.869Z,26.5
2018-06-28T12:15:48.699Z,26.7
2018-06-28T12:16:47.920Z,26.9
2018-06-28T12:17:47.536Z,27.2
2018-06-28T12:18:47.249Z,27.3
2018-06-28T12:19:47.071Z,27.4
2018-06-28T12:20:46.287Z,27.4
2018-06-28T12:21:46.277Z,27.3
2018-06-28T12:22:45.606Z,27.2
2018-06-28T12:23:44.820Z,27.2
2018-06-28T12:24:44.755Z,27.2
2018-06-28T12:26:43.966Z,27
2018-06-28T12:27:43.285Z,26.9
2018-06-28T12:28:43.216Z,26.8
2018-06-28T12:29:42.430Z,26.9
2018-06-28T12:31:41.647Z,26.8
2018-06-28T12:32:41.367Z,26.8
2018-06-28T12:33:41.187Z,26.7
2018-06-28T12:34:40.293Z,26.7
2018-06-28T12:35:40.234Z,26.7
2018-06-28T12:36:39.583Z,26.7
2018-06-28T12:37:39.079Z,26.7
2018-06-28T12:38:38.910Z,26.7
2018-06-28T12:39:38.230Z,26.7
2018-06-28T12:41:37.355Z,26.7
2018-06-28T12:42:37.070Z,26.7
2018-06-28T12:43:36.569Z,26.6
2018-06-28T12:44:36.176Z,26.5
2018-06-28T12:45:35.904Z,26.5
2018-06-28T12:46:36.304Z,26.4
2018-06-28T12:47:34.987Z,26.4
2018-06-28T12:48:34.920Z,26.4
2018-06-28T12:49:34.025Z,26.5
2018-06-28T12:50:33.857Z,26.5
2018-06-28T12:51:33.237Z,26.5
2018-06-28T12:52:03.974Z,26.5
2018-06-28T12:52:33.990Z,26.6
2018-06-28T12:53:04.625Z,26.6
2018-06-28T12:53:35.049Z,26.6
2018-06-28T12:54:05.575Z,26.6
2018-06-28T12:54:36.211Z,26.7
2018-06-28T12:55:06.951Z,26.7
2018-06-28T12:56:31.515Z,26.7
2018-06-28T12:57:30.845Z,26.7
2018-06-28T12:58:30.785Z,26.6
2018-06-28T12:59:29.998Z,26.7
2018-06-28T13:00:29.830Z,26.7
2018-06-28T13:01:29.159Z,26.7
2018-06-28T13:02:28.587Z,26.5
2018-06-28T13:02:58.824Z,26.5
2018-06-28T13:03:28.628Z,26.5
2018-06-28T13:03:59.151Z,26.5
2018-06-28T13:04:29.573Z,26.4
2018-06-28T13:05:00.214Z,26.4
2018-06-28T13:06:27.219Z,26.3
2018-06-28T13:07:26.327Z,26.2
2018-06-28T13:08:25.834Z,26.2
2018-06-28T13:09:25.460Z,26.2
2018-06-28T13:10:24.977Z,26.1